createdAt,value
2023-05-14T00:01:04.020Z,98991.63
2023-05-14T00:03:30.943Z,98977.03
2023-05-14T00:05:58.289Z,98986.03
2023-05-14T00:08:24.937Z,98986.16
2023-05-14T00:10:53.111Z,98980.78
2023-05-14T00:13:20.061Z,98978.09
2023-05-14T00:15:46.643Z,98976.53
2023-05-14T00:18:13.284Z,98964.69
2023-05-14T00:20:41.532Z,98977.41
2023-05-14T00:23:08.575Z,98976.41
2023-05-14T00:25:36.117Z,98973.81
2023-05-14T00:28:04.072Z,98977.97
2023-05-14T00:30:30.634Z,98969.19
2023-05-14T00:32:57.364Z,98969.97
2023-05-14T00:35:24.071Z,98957.38
2023-05-14T00:37:50.648Z,98963.03
2023-05-14T00:40:17.518Z,98957.16
2023-05-14T00:42:44.100Z,98962.19
2023-05-14T00:45:11.126Z,98958.03
2023-05-14T00:47:39.252Z,98957.16
2023-05-14T00:50:06.723Z,98956.56
2023-05-14T00:52:33.417Z,98970.16
2023-05-14T00:55:03.563Z,98970.69
2023-05-14T00:57:30.362Z,98957.19
2023-05-14T00:59:57.569Z,98957.31
2023-05-14T01:02:24.263Z,98964.75
2023-05-14T01:04:51.878Z,98952.16
2023-05-14T01:07:59.233Z,98956.75
2023-05-14T01:10:33.022Z,98946.38
2023-05-14T01:13:44.300Z,98954.88
2023-05-14T01:16:14.427Z,98956.63
2023-05-14T01:18:43.274Z,98950.63
2023-05-14T01:21:43.012Z,98953.69
2023-05-14T01:24:09.774Z,98946.59
2023-05-14T01:26:36.951Z,98948.81
2023-05-14T01:29:22.944Z,98946.97
2023-05-14T01:31:51.339Z,98939.09
2023-05-14T01:34:23.405Z,98943.31
2023-05-14T01:36:51.670Z,98949.63
2023-05-14T01:39:19.327Z,98940.19
2023-05-14T01:41:46.297Z,98944.00
2023-05-14T01:44:13.137Z,98940.63
2023-05-14T01:46:39.815Z,98935.75
2023-05-14T01:49:06.470Z,98941.44
2023-05-14T01:51:33.181Z,98935.03
2023-05-14T01:53:59.813Z,98939.56
2023-05-14T01:56:26.957Z,98938.41
2023-05-14T01:58:53.770Z,98935.41
2023-05-14T02:01:20.697Z,98937.97
2023-05-14T02:03:47.384Z,98934.16
2023-05-14T02:06:14.062Z,98937.66
2023-05-14T02:08:40.681Z,98938.22
2023-05-14T02:11:07.498Z,98934.28
2023-05-14T02:13:34.195Z,98931.06
2023-05-14T02:16:05.602Z,98932.28
2023-05-14T02:18:32.416Z,98929.31
2023-05-14T02:21:02.313Z,98930.53
2023-05-14T02:23:40.356Z,98926.44
2023-05-14T02:26:09.773Z,98926.75
2023-05-14T02:28:36.472Z,98926.03
2023-05-14T02:31:03.183Z,98922.31
2023-05-14T02:33:30.008Z,98919.25
2023-05-14T02:35:56.760Z,98920.91
2023-05-14T02:38:23.562Z,98923.56
2023-05-14T02:40:50.224Z,98921.88
2023-05-14T02:43:16.812Z,98917.75
2023-05-14T02:45:43.472Z,98912.19
2023-05-14T02:48:10.293Z,98911.59
2023-05-14T02:50:36.936Z,98910.19
2023-05-14T02:53:03.608Z,98910.19
2023-05-14T02:55:30.242Z,98913.56
2023-05-14T02:57:56.923Z,98909.69
2023-05-14T03:00:24.169Z,98911.56
2023-05-14T03:02:51.310Z,98899.22
2023-05-14T03:05:18.790Z,98903.94
2023-05-14T03:07:45.669Z,98903.94
2023-05-14T03:10:12.275Z,98898.25
2023-05-14T03:12:39.418Z,98905.59
2023-05-14T03:15:06.696Z,98898.28
2023-05-14T03:17:34.692Z,98909.91
2023-05-14T03:20:01.325Z,98903.09
2023-05-14T03:22:28.108Z,98902.88
2023-05-14T03:24:54.748Z,98905.03
2023-05-14T03:27:21.308Z,98903.13
2023-05-14T03:29:47.918Z,98908.44
2023-05-14T03:32:15.037Z,98899.81
2023-05-14T03:34:41.938Z,98896.75
2023-05-14T03:37:08.513Z,98897.28
2023-05-14T03:39:35.169Z,98901.25
2023-05-14T03:42:02.114Z,98902.41
2023-05-14T03:44:28.711Z,98896.59
2023-05-14T03:46:55.781Z,98896.03
2023-05-14T03:49:22.366Z,98897.50
2023-05-14T03:51:48.980Z,98905.41
2023-05-14T03:54:15.791Z,98900.66
2023-05-14T03:56:42.415Z,98902.78
2023-05-14T03:59:09.014Z,98904.34
2023-05-14T04:01:35.591Z,98908.81
2023-05-14T04:04:02.235Z,98906.22
2023-05-14T04:06:28.928Z,98912.78
2023-05-14T04:08:55.559Z,98911.47
2023-05-14T04:11:22.200Z,98910.13
2023-05-14T04:13:48.779Z,98905.78
2023-05-14T04:16:15.401Z,98915.91
2023-05-14T04:18:42.180Z,98913.69
2023-05-14T04:21:08.874Z,98911.47
2023-05-14T04:23:35.525Z,98917.13
2023-05-14T04:26:02.160Z,98913.50
2023-05-14T04:28:28.749Z,98908.66
2023-05-14T04:30:55.386Z,98908.03
2023-05-14T04:33:22.270Z,98913.31
2023-05-14T04:35:48.932Z,98913.66
2023-05-14T04:38:15.579Z,98909.84
2023-05-14T04:40:42.731Z,98913.25
2023-05-14T04:43:09.614Z,98922.69
2023-05-14T04:45:36.620Z,98924.97
2023-05-14T04:48:04.774Z,98920.66
2023-05-14T04:50:31.508Z,98922.94
2023-05-14T04:52:58.139Z,98924.88
2023-05-14T04:55:24.835Z,98922.97
2023-05-14T04:57:51.528Z,98921.59
2023-05-14T05:00:19.043Z,98920.59
2023-05-14T05:02:45.757Z,98925.03
2023-05-14T05:05:12.526Z,98927.44
2023-05-14T05:07:39.124Z,98931.94
2023-05-14T05:10:06.791Z,98928.66
2023-05-14T05:12:35.163Z,98932.63
2023-05-14T05:15:01.972Z,98934.03
2023-05-14T05:17:29.821Z,98927.97
2023-05-14T05:19:56.756Z,98926.84
2023-05-14T05:22:24.216Z,98913.44
2023-05-14T05:24:50.802Z,98920.69
2023-05-14T05:27:17.493Z,98925.50
2023-05-14T05:29:44.519Z,98927.59
2023-05-14T05:32:11.173Z,98924.75
2023-05-14T05:34:37.925Z,98919.75
2023-05-14T05:37:06.055Z,98918.94
2023-05-14T05:39:34.760Z,98921.22
2023-05-14T05:42:02.529Z,98925.94
2023-05-14T05:44:29.198Z,98925.06
2023-05-14T05:46:57.220Z,98927.38
2023-05-14T05:49:24.126Z,98931.94
2023-05-14T05:51:50.873Z,98922.34
2023-05-14T05:54:17.558Z,98924.53
2023-05-14T05:56:44.158Z,98922.59
2023-05-14T05:59:10.903Z,98927.34
2023-05-14T06:01:37.698Z,98934.22
2023-05-14T06:04:06.095Z,98929.81
2023-05-14T06:06:32.993Z,98930.88
2023-05-14T06:09:01.601Z,98941.28
2023-05-14T06:11:28.728Z,98942.28
2023-05-14T06:13:55.339Z,98943.19
2023-05-14T06:16:22.023Z,98935.13
2023-05-14T06:18:49.251Z,98930.66
2023-05-14T06:21:15.890Z,98935.34
2023-05-14T06:23:42.459Z,98938.25
2023-05-14T06:26:09.029Z,98932.19
2023-05-14T06:28:35.653Z,98944.41
2023-05-14T06:31:02.291Z,98947.13
2023-05-14T06:33:31.619Z,98946.84
2023-05-14T06:36:06.701Z,98943.66
2023-05-14T06:38:33.677Z,98944.47
2023-05-14T06:41:00.395Z,98947.63
2023-05-14T06:43:28.176Z,98937.69
2023-05-14T06:45:54.938Z,98936.78
2023-05-14T06:48:21.819Z,98942.38
2023-05-14T06:50:49.438Z,98933.22
2023-05-14T06:53:16.758Z,98940.66
2023-05-14T06:55:43.566Z,98937.88
2023-05-14T06:58:10.246Z,98943.13
2023-05-14T07:00:36.900Z,98939.47
2023-05-14T07:03:03.638Z,98932.53
2023-05-14T07:05:30.278Z,98936.81
2023-05-14T07:07:56.907Z,98939.59
2023-05-14T07:10:24.118Z,98946.22
2023-05-14T07:12:51.323Z,98939.69
2023-05-14T07:15:18.014Z,98938.16
2023-05-14T07:17:45.140Z,98943.03
2023-05-14T07:20:12.862Z,98941.69
2023-05-14T07:22:39.695Z,98932.09
2023-05-14T07:25:07.188Z,98940.13
2023-05-14T07:27:34.280Z,98935.03
2023-05-14T07:30:00.987Z,98925.78
2023-05-14T07:32:27.627Z,98925.13
2023-05-14T07:34:54.287Z,98929.50
2023-05-14T07:37:23.919Z,98928.06
2023-05-14T07:39:50.894Z,98913.41
2023-05-14T07:42:31.852Z,98923.50
2023-05-14T07:45:02.300Z,98927.97
2023-05-14T07:47:29.694Z,98917.78
2023-05-14T07:49:57.235Z,98911.97
2023-05-14T07:52:24.482Z,98913.81
2023-05-14T07:54:52.045Z,98908.94
2023-05-14T07:57:19.933Z,98910.50
2023-05-14T07:59:48.051Z,98911.97
2023-05-14T08:02:16.524Z,98895.66
2023-05-14T08:04:43.750Z,98895.41
2023-05-14T08:07:10.914Z,98910.63
2023-05-14T08:09:37.755Z,98903.94
2023-05-14T08:12:05.094Z,98898.69
2023-05-14T08:14:31.751Z,98903.94
2023-05-14T08:16:58.520Z,98903.25
2023-05-14T08:19:27.188Z,98891.06
2023-05-14T08:21:53.937Z,98888.50
2023-05-14T08:24:20.680Z,98898.78
2023-05-14T08:26:47.316Z,98884.41
2023-05-14T08:29:16.134Z,98891.53
2023-05-14T08:31:44.446Z,98887.34
2023-05-14T08:34:11.111Z,98892.59
2023-05-14T08:36:39.138Z,98885.63
2023-05-14T08:39:07.505Z,98882.94
2023-05-14T08:41:34.634Z,98880.09
2023-05-14T08:44:09.231Z,98869.69
2023-05-14T08:46:38.307Z,98870.19
2023-05-14T08:49:25.227Z,98884.50
2023-05-14T08:51:52.414Z,98874.09
2023-05-14T08:54:19.581Z,98879.56
2023-05-14T08:56:46.420Z,98878.31
2023-05-14T08:59:13.730Z,98871.03
2023-05-14T09:01:49.403Z,98861.22
2023-05-14T09:04:21.034Z,98859.00
2023-05-14T09:06:55.321Z,98863.31
2023-05-14T09:09:22.999Z,98857.81
2023-05-14T09:11:53.987Z,98863.59
2023-05-14T09:14:22.328Z,98855.50
2023-05-14T09:16:50.792Z,98865.47
2023-05-14T09:19:21.627Z,98857.97
2023-05-14T09:21:49.792Z,98846.19
2023-05-14T09:24:30.878Z,98843.41
2023-05-14T09:26:58.796Z,98852.09
2023-05-14T09:29:26.651Z,98845.22
2023-05-14T09:31:55.425Z,98838.25
2023-05-14T09:34:32.028Z,98841.56
2023-05-14T09:37:04.842Z,98842.06
2023-05-14T09:39:33.559Z,98839.94
2023-05-14T09:42:00.205Z,98840.38
2023-05-14T09:44:27.735Z,98840.34
2023-05-14T09:46:54.722Z,98830.31
2023-05-14T09:49:22.224Z,98831.50
2023-05-14T09:51:49.696Z,98824.31
2023-05-14T09:54:16.674Z,98826.00
2023-05-14T09:56:44.027Z,98826.56
2023-05-14T09:59:10.941Z,98835.03
2023-05-14T10:01:38.744Z,98824.56
2023-05-14T10:04:09.767Z,98831.44
2023-05-14T10:06:42.089Z,98838.56
2023-05-14T10:09:13.477Z,98828.00
2023-05-14T10:11:44.292Z,98833.91
2023-05-14T10:14:20.934Z,98833.81
2023-05-14T10:16:53.531Z,98829.38
2023-05-14T10:19:26.122Z,98830.94
2023-05-14T10:22:04.026Z,98825.19
2023-05-14T10:24:31.504Z,98835.34
2023-05-14T10:26:58.733Z,98833.72
2023-05-14T10:29:35.174Z,98821.78
2023-05-14T10:32:07.335Z,98831.75
2023-05-14T10:34:45.823Z,98822.31
2023-05-14T10:37:22.628Z,98810.69
2023-05-14T10:39:57.644Z,98813.75
2023-05-14T10:42:33.327Z,98818.31
2023-05-14T10:45:07.084Z,98819.00
2023-05-14T10:47:38.479Z,98807.03
2023-05-14T10:50:08.611Z,98802.25
2023-05-14T10:52:36.084Z,98796.09
2023-05-14T10:55:07.616Z,98801.66
2023-05-14T10:57:38.525Z,98799.38
2023-05-14T11:00:07.644Z,98798.47
2023-05-14T11:02:40.639Z,98790.88
2023-05-14T11:05:13.971Z,98787.22
2023-05-14T11:07:49.825Z,98783.06
2023-05-14T11:10:19.427Z,98787.19
2023-05-14T11:12:48.807Z,98780.69
2023-05-14T11:15:21.610Z,98784.13
2023-05-14T11:17:49.665Z,98784.25
2023-05-14T11:20:18.113Z,98788.13
2023-05-14T11:22:47.719Z,98779.53
2023-05-14T11:25:15.262Z,98780.66
2023-05-14T11:27:44.627Z,98776.53
2023-05-14T11:30:19.532Z,98775.59
2023-05-14T11:32:48.481Z,98777.31
2023-05-14T11:35:17.105Z,98772.84
2023-05-14T11:37:50.495Z,98757.63
2023-05-14T11:40:17.553Z,98757.50
2023-05-14T11:42:44.444Z,98754.34
2023-05-14T11:45:13.025Z,98757.44
2023-05-14T11:47:42.576Z,98759.59
2023-05-14T11:50:10.027Z,98755.44
2023-05-14T11:52:41.472Z,98745.72
2023-05-14T11:55:13.797Z,98743.09
2023-05-14T11:57:41.023Z,98752.78
2023-05-14T12:00:16.617Z,98748.88
2023-05-14T12:02:43.311Z,98744.03
2023-05-14T12:05:13.105Z,98750.84
2023-05-14T12:07:40.237Z,98737.69
2023-05-14T12:10:08.064Z,98744.78
2023-05-14T12:12:36.960Z,98737.03
2023-05-14T12:15:14.209Z,98737.03
2023-05-14T12:17:41.204Z,98731.28
2023-05-14T12:20:12.240Z,98743.28
2023-05-14T12:22:41.941Z,98725.25
2023-05-14T12:25:13.947Z,98716.50
2023-05-14T12:27:41.500Z,98716.00
2023-05-14T12:32:42.017Z,98714.81
2023-05-14T12:35:09.439Z,98708.59
2023-05-14T12:37:37.295Z,98705.38
2023-05-14T12:40:08.867Z,98701.75
2023-05-14T12:42:35.838Z,98697.91
2023-05-14T12:45:05.440Z,98689.19
2023-05-14T12:47:32.430Z,98695.03
2023-05-14T12:49:59.130Z,98682.69
2023-05-14T12:52:36.722Z,98680.63
2023-05-14T12:55:07.049Z,98689.69
2023-05-14T12:57:35.067Z,98684.19
2023-05-14T13:00:07.704Z,98680.78
2023-05-14T13:02:42.588Z,98673.63
2023-05-14T13:05:11.954Z,98665.72
2023-05-14T13:07:39.063Z,98655.66
2023-05-14T13:10:06.730Z,98669.47
2023-05-14T13:12:33.638Z,98658.28
2023-05-14T13:15:00.313Z,98662.66
2023-05-14T13:17:27.009Z,98658.63
2023-05-14T13:19:54.240Z,98654.41
2023-05-14T13:22:20.904Z,98659.84
2023-05-14T13:24:47.566Z,98650.97
2023-05-14T13:27:14.187Z,98655.97
2023-05-14T13:29:41.356Z,98651.13
2023-05-14T13:32:08.323Z,98651.78
2023-05-14T13:34:34.930Z,98641.06
2023-05-14T13:37:01.605Z,98639.03
2023-05-14T13:39:28.250Z,98646.63
2023-05-14T13:41:56.621Z,98640.31
2023-05-14T13:44:23.535Z,98644.09
2023-05-14T13:46:50.535Z,98646.97
2023-05-14T13:49:17.431Z,98647.44
2023-05-14T13:51:44.281Z,98640.81
2023-05-14T13:54:10.979Z,98637.28
2023-05-14T13:56:37.651Z,98639.84
2023-05-14T13:59:04.416Z,98629.03
2023-05-14T14:01:31.462Z,98635.06
2023-05-14T14:03:58.170Z,98630.56
2023-05-14T14:06:27.388Z,98617.16
2023-05-14T14:08:54.235Z,98616.66
2023-05-14T14:11:21.741Z,98619.09
2023-05-14T14:13:48.446Z,98617.41
2023-05-14T14:16:16.033Z,98627.81
2023-05-14T14:18:43.134Z,98615.31
2023-05-14T14:21:10.411Z,98608.91
2023-05-14T14:23:37.265Z,98611.69
2023-05-14T14:26:04.025Z,98618.56
2023-05-14T14:28:31.167Z,98618.56
2023-05-14T14:30:57.878Z,98608.75
2023-05-14T14:33:24.557Z,98606.38
2023-05-14T14:35:51.653Z,98604.38
2023-05-14T14:38:18.310Z,98602.72
2023-05-14T14:40:46.042Z,98599.69
2023-05-14T14:43:12.737Z,98593.97
2023-05-14T14:45:39.380Z,98599.09
2023-05-14T14:48:31.365Z,98596.06
2023-05-14T14:50:58.642Z,98599.25
2023-05-14T14:53:25.734Z,98600.31
2023-05-14T14:55:52.762Z,98597.72
2023-05-14T14:58:20.690Z,98605.72
2023-05-14T15:00:48.742Z,98602.28
2023-05-14T15:03:15.731Z,98604.31
2023-05-14T15:05:42.767Z,98599.63
2023-05-14T15:08:10.156Z,98603.06
2023-05-14T15:10:38.140Z,98601.91
2023-05-14T15:13:06.302Z,98600.53
2023-05-14T15:15:34.712Z,98610.28
2023-05-14T15:18:02.676Z,98610.16
2023-05-14T15:20:29.336Z,98608.56
2023-05-14T15:22:56.796Z,98613.84
2023-05-14T15:25:24.838Z,98610.78
2023-05-14T15:27:51.886Z,98613.63
2023-05-14T15:30:18.732Z,98611.53
2023-05-14T15:32:46.574Z,98609.81
2023-05-14T15:35:13.285Z,98616.13
2023-05-14T15:37:42.554Z,98613.63
2023-05-14T15:40:10.420Z,98613.00
2023-05-14T15:42:41.995Z,98612.56
2023-05-14T15:45:13.199Z,98614.56
2023-05-14T15:47:40.962Z,98612.44
2023-05-14T15:50:09.023Z,98609.69
2023-05-14T15:52:36.330Z,98608.97
2023-05-14T15:55:05.117Z,98604.97
2023-05-14T15:57:32.018Z,98599.44
2023-05-14T15:59:59.084Z,98602.53
2023-05-14T16:02:25.734Z,98604.25
2023-05-14T16:04:54.591Z,98591.63
2023-05-14T16:07:21.356Z,98584.19
2023-05-14T16:09:47.943Z,98583.50
2023-05-14T16:12:14.596Z,98580.38
2023-05-14T16:14:42.137Z,98578.91
2023-05-14T16:17:09.141Z,98580.91
2023-05-14T16:19:35.761Z,98590.59
2023-05-14T16:22:02.401Z,98581.13
2023-05-14T16:24:29.000Z,98583.03
2023-05-14T16:26:58.117Z,98582.34
2023-05-14T16:29:26.746Z,98580.72
2023-05-14T16:31:53.431Z,98577.09
2023-05-14T16:34:20.059Z,98582.34
2023-05-14T16:36:46.666Z,98575.84
2023-05-14T16:39:13.323Z,98575.94
2023-05-14T16:41:39.927Z,98570.84
2023-05-14T16:44:06.548Z,98566.47
2023-05-14T16:46:33.875Z,98572.00
2023-05-14T16:49:02.300Z,98570.56
2023-05-14T16:51:29.047Z,98571.56
2023-05-14T16:53:55.836Z,98568.25
2023-05-14T16:56:22.586Z,98561.94
2023-05-14T16:58:49.713Z,98556.56
2023-05-14T17:01:16.398Z,98557.69
2023-05-14T17:03:44.622Z,98564.59
2023-05-14T17:06:11.341Z,98559.75
2023-05-14T17:08:37.972Z,98568.28
2023-05-14T17:11:05.806Z,98568.75
2023-05-14T17:13:33.453Z,98568.38
2023-05-14T17:16:00.948Z,98565.69
2023-05-14T17:18:28.194Z,98566.34
2023-05-14T17:20:54.894Z,98566.53
2023-05-14T17:23:21.508Z,98571.53
2023-05-14T17:25:48.133Z,98571.53
2023-05-14T17:28:14.871Z,98562.44
2023-05-14T17:30:41.624Z,98574.09
2023-05-14T17:33:08.460Z,98572.97
2023-05-14T17:35:36.213Z,98578.16
2023-05-14T17:38:03.381Z,98579.19
2023-05-14T17:40:30.050Z,98583.25
2023-05-14T17:42:56.678Z,98586.19
2023-05-14T17:45:23.620Z,98579.47
2023-05-14T17:47:51.384Z,98580.59
2023-05-14T17:50:18.896Z,98576.69
2023-05-14T17:52:46.041Z,98574.09
2023-05-14T17:55:13.049Z,98583.66
2023-05-14T17:57:40.256Z,98582.34
2023-05-14T18:00:08.131Z,98574.25
2023-05-14T18:02:34.790Z,98574.16
2023-05-14T18:05:02.669Z,98577.56
2023-05-14T18:07:30.174Z,98574.13
2023-05-14T18:09:57.047Z,98574.06
2023-05-14T18:12:25.557Z,98574.81
2023-05-14T18:14:52.379Z,98580.84
2023-05-14T18:17:19.139Z,98581.81
2023-05-14T18:19:45.933Z,98581.81
2023-05-14T18:22:12.787Z,98583.25
2023-05-14T18:24:39.439Z,98580.75
2023-05-14T18:27:06.205Z,98588.00
2023-05-14T18:29:32.799Z,98596.50
2023-05-14T18:31:59.394Z,98605.00
2023-05-14T18:34:25.995Z,98606.91
2023-05-14T18:36:52.666Z,98600.63
2023-05-14T18:39:19.247Z,98604.25
2023-05-14T18:41:45.900Z,98600.09
2023-05-14T18:44:12.505Z,98602.09
2023-05-14T18:46:39.382Z,98596.31
2023-05-14T18:49:06.129Z,98603.72
2023-05-14T18:51:32.777Z,98614.84
2023-05-14T18:53:59.525Z,98623.13
2023-05-14T18:56:26.208Z,98609.97
2023-05-14T18:58:54.031Z,98609.97
2023-05-14T19:01:21.274Z,98616.25
2023-05-14T19:03:49.742Z,98618.66
2023-05-14T19:06:16.772Z,98628.53
2023-05-14T19:08:43.394Z,98623.13
2023-05-14T19:11:09.998Z,98620.56
2023-05-14T19:13:36.577Z,98621.75
2023-05-14T19:16:03.383Z,98626.53
2023-05-14T19:18:30.162Z,98631.63
2023-05-14T19:20:57.066Z,98637.47
2023-05-14T19:23:23.670Z,98633.19
2023-05-14T19:25:50.286Z,98640.91
2023-05-14T19:28:19.694Z,98636.06
2023-05-14T19:30:46.366Z,98633.50
2023-05-14T19:33:13.096Z,98632.88
2023-05-14T19:35:39.724Z,98641.03
2023-05-14T19:38:06.377Z,98634.00
2023-05-14T19:40:32.989Z,98638.78
2023-05-14T19:42:59.638Z,98647.38
2023-05-14T19:45:26.590Z,98636.47
2023-05-14T19:47:53.966Z,98644.84
2023-05-14T19:50:20.775Z,98642.50
2023-05-14T19:52:47.525Z,98636.34
2023-05-14T19:55:14.199Z,98640.94
2023-05-14T19:57:40.907Z,98640.75
2023-05-14T20:00:08.969Z,98636.19
2023-05-14T20:02:35.706Z,98635.63
2023-05-14T20:05:02.400Z,98635.53
2023-05-14T20:07:29.309Z,98637.09
2023-05-14T20:09:56.128Z,98635.09
2023-05-14T20:12:22.695Z,98634.03
2023-05-14T20:14:49.284Z,98635.00
2023-05-14T20:17:16.062Z,98629.81
2023-05-14T20:19:43.614Z,98638.00
2023-05-14T20:22:10.256Z,98631.09
2023-05-14T20:24:36.977Z,98636.03
2023-05-14T20:27:03.817Z,98622.88
2023-05-14T20:29:30.532Z,98619.69
2023-05-14T20:31:57.293Z,98624.44
2023-05-14T20:34:24.078Z,98620.47
2023-05-14T20:36:51.754Z,98612.53
2023-05-14T20:39:18.347Z,98617.28
2023-05-14T20:41:47.823Z,98620.72
2023-05-14T20:44:14.458Z,98621.03
2023-05-14T20:46:41.106Z,98606.84
2023-05-14T20:49:07.758Z,98622.53
2023-05-14T20:51:34.360Z,98616.56
2023-05-14T20:54:01.035Z,98610.38
2023-05-14T20:56:27.740Z,98607.59
2023-05-14T20:58:54.304Z,98606.63
2023-05-14T21:01:21.397Z,98610.22
2023-05-14T21:03:48.354Z,98603.19
2023-05-14T21:06:18.082Z,98602.94
2023-05-14T21:08:44.660Z,98603.78
2023-05-14T21:11:11.300Z,98605.66
2023-05-14T21:13:37.888Z,98606.53
2023-05-14T21:16:04.933Z,98598.47
2023-05-14T21:18:32.655Z,98597.19
2023-05-14T21:20:59.398Z,98593.94
2023-05-14T21:23:26.074Z,98594.72
2023-05-14T21:25:54.618Z,98590.22
2023-05-14T21:28:22.248Z,98590.06
2023-05-14T21:30:50.482Z,98596.78
2023-05-14T21:33:17.381Z,98595.50
2023-05-14T21:35:44.065Z,98602.00
2023-05-14T21:38:10.724Z,98607.28
2023-05-14T21:40:37.318Z,98604.84
2023-05-14T21:43:03.929Z,98601.72
2023-05-14T21:45:30.633Z,98604.03
2023-05-14T21:47:57.381Z,98602.31
2023-05-14T21:50:24.017Z,98598.88
2023-05-14T21:52:50.674Z,98595.63
2023-05-14T21:55:17.442Z,98590.19
2023-05-14T21:57:44.040Z,98591.88
2023-05-14T22:00:12.947Z,98591.41
2023-05-14T22:02:39.812Z,98583.69
2023-05-14T22:05:06.728Z,98584.56
2023-05-14T22:07:33.367Z,98582.34
2023-05-14T22:09:59.953Z,98589.81
2023-05-14T22:12:26.680Z,98582.06
2023-05-14T22:14:53.261Z,98585.13
2023-05-14T22:17:19.839Z,98577.19
2023-05-14T22:19:46.414Z,98582.75
2023-05-14T22:22:13.021Z,98585.38
2023-05-14T22:24:39.598Z,98571.47
2023-05-14T22:27:06.497Z,98577.06
2023-05-14T22:29:33.089Z,98578.56
2023-05-14T22:31:59.653Z,98580.66
2023-05-14T22:34:26.215Z,98580.00
2023-05-14T22:36:52.946Z,98575.66
2023-05-14T22:39:19.535Z,98572.25
2023-05-14T22:41:46.098Z,98578.59
2023-05-14T22:44:12.688Z,98569.88
2023-05-14T22:46:39.353Z,98568.84
2023-05-14T22:49:06.254Z,98568.56
2023-05-14T22:51:32.962Z,98555.56
2023-05-14T22:53:59.529Z,98555.88
2023-05-14T22:56:26.168Z,98546.22
2023-05-14T22:58:52.740Z,98548.56
2023-05-14T23:01:19.425Z,98539.34
2023-05-14T23:03:46.038Z,98538.25
2023-05-14T23:06:14.339Z,98539.72
2023-05-14T23:08:40.950Z,98538.25
2023-05-14T23:11:07.606Z,98533.59
2023-05-14T23:13:34.237Z,98534.69
2023-05-14T23:16:01.165Z,98526.75
2023-05-14T23:18:27.992Z,98530.50
2023-05-14T23:20:54.731Z,98523.94
2023-05-14T23:23:21.313Z,98524.84
2023-05-14T23:25:50.050Z,98521.91
2023-05-14T23:28:17.805Z,98517.00
2023-05-14T23:30:45.119Z,98520.22
2023-05-14T23:33:11.768Z,98517.69
2023-05-14T23:35:39.225Z,98513.81
2023-05-14T23:38:06.924Z,98518.88
2023-05-14T23:40:34.159Z,98512.44
2023-05-14T23:43:01.182Z,98508.41
2023-05-14T23:45:28.121Z,98506.03
2023-05-14T23:47:57.624Z,98505.13
2023-05-14T23:50:25.404Z,98500.47
2023-05-14T23:52:53.604Z,98499.91
2023-05-14T23:55:20.814Z,98502.72
2023-05-14T23:57:48.410Z,98491.97
